createdAt,value
2017-09-11T00:00:27.269Z,17.4
2017-09-11T00:01:07.857Z,17.38
2017-09-11T00:01:48.420Z,17.44
2017-09-11T00:02:28.992Z,17.37
2017-09-11T00:03:09.551Z,17.37
2017-09-11T00:03:50.075Z,17.38
2017-09-11T00:04:30.717Z,17.46
2017-09-11T00:05:11.340Z,17.44
2017-09-11T00:05:51.873Z,17.37
2017-09-11T00:06:32.485Z,17.36
2017-09-11T00:07:13.133Z,17.36
2017-09-11T00:07:53.653Z,17.37
2017-09-11T00:08:34.157Z,17.37
2017-09-11T00:09:14.742Z,17.36
2017-09-11T00:09:55.289Z,17.36
2017-09-11T00:10:35.800Z,17.46
2017-09-11T00:11:16.369Z,17.43
2017-09-11T00:11:56.917Z,17.48
2017-09-11T00:12:37.503Z,17.34
2017-09-11T00:13:18.016Z,17.36
2017-09-11T00:13:58.610Z,17.38
2017-09-11T00:14:39.157Z,17.37
2017-09-11T00:15:19.709Z,17.36
2017-09-11T00:16:00.266Z,17.21
2017-09-11T00:16:40.825Z,17.22
2017-09-11T00:17:21.311Z,17.22
2017-09-11T00:18:01.828Z,17.22
2017-09-11T00:18:42.373Z,17.31
2017-09-11T00:19:22.905Z,17.23
2017-09-11T00:20:03.441Z,17.25
2017-09-11T00:20:43.993Z,17.25
2017-09-11T00:21:24.554Z,17.36
2017-09-11T00:22:05.075Z,17.44
2017-09-11T00:22:45.608Z,17.21
2017-09-11T00:23:26.160Z,17.36
2017-09-11T00:24:06.811Z,17.34
2017-09-11T00:24:47.326Z,17.23
2017-09-11T00:25:27.840Z,17.26
2017-09-11T00:26:08.406Z,17.34
2017-09-11T00:26:48.952Z,17.4
2017-09-11T00:27:29.448Z,17.34
2017-09-11T00:28:09.948Z,17.36
2017-09-11T00:28:50.517Z,17.34
2017-09-11T00:29:31.079Z,17.36
2017-09-11T00:30:11.650Z,17.46
2017-09-11T00:30:52.156Z,17.48
2017-09-11T00:31:32.694Z,17.44
2017-09-11T00:32:13.254Z,17.44
2017-09-11T00:32:53.769Z,17.43
2017-09-11T00:33:34.256Z,17.41
2017-09-11T00:34:14.798Z,17.38
2017-09-11T00:34:55.369Z,17.41
2017-09-11T00:35:35.912Z,17.37
2017-09-11T00:36:16.409Z,17.44
2017-09-11T00:36:56.969Z,17.4
2017-09-11T00:37:37.495Z,17.4
2017-09-11T00:38:18.049Z,17.4
2017-09-11T00:38:58.557Z,17.36
2017-09-11T00:39:39.098Z,17.37
2017-09-11T00:40:19.659Z,17.44
2017-09-11T00:41:00.164Z,17.33
2017-09-11T00:41:40.659Z,17.33
2017-09-11T00:42:21.170Z,17.4
2017-09-11T00:43:01.720Z,17.41
2017-09-11T00:43:42.281Z,17.38
2017-09-11T00:44:22.801Z,17.34
2017-09-11T00:45:03.365Z,17.36
2017-09-11T00:45:43.882Z,17.46
2017-09-11T00:46:24.429Z,17.37
2017-09-11T00:47:04.996Z,17.36
2017-09-11T00:47:45.488Z,17.31
2017-09-11T00:48:26.002Z,17.36
2017-09-11T00:49:06.560Z,17.4
2017-09-11T00:49:47.099Z,17.22
2017-09-11T00:50:27.686Z,17.38
2017-09-11T00:51:08.178Z,17.33
2017-09-11T00:51:48.711Z,17.31
2017-09-11T00:52:29.270Z,17.33
2017-09-11T00:53:09.806Z,17.23
2017-09-11T00:53:50.336Z,17.25
2017-09-11T00:54:30.862Z,17.16
2017-09-11T00:55:12.257Z,17.11
2017-09-11T00:55:52.818Z,17.12
2017-09-11T00:56:33.366Z,17.25
2017-09-11T00:57:13.882Z,17.23
2017-09-11T00:57:54.432Z,17.26
2017-09-11T00:58:34.943Z,17.28
2017-09-11T00:59:15.469Z,17.23
2017-09-11T00:59:56.035Z,17.23
2017-09-11T01:00:36.565Z,17.23
2017-09-11T01:01:17.075Z,17.25
2017-09-11T01:01:57.618Z,17.37
2017-09-11T01:02:38.159Z,17.38
2017-09-11T01:03:18.692Z,17.33
2017-09-11T01:03:59.227Z,17.41
2017-09-11T01:04:39.786Z,17.36
2017-09-11T01:05:20.323Z,17.43
2017-09-11T01:06:00.851Z,17.43
2017-09-11T01:06:41.370Z,17.34
2017-09-11T01:07:21.918Z,17.36
2017-09-11T01:08:02.440Z,17.36
2017-09-11T01:08:42.990Z,17.28
2017-09-11T01:09:23.528Z,17.22
2017-09-11T01:10:04.068Z,17.22
2017-09-11T01:10:44.649Z,17.34
2017-09-11T01:11:25.187Z,17.23
2017-09-11T01:12:05.682Z,17.22
2017-09-11T01:12:46.229Z,17.36
2017-09-11T01:13:26.747Z,17.31
2017-09-11T01:14:07.290Z,17.37
2017-09-11T01:14:47.865Z,17.37
2017-09-11T01:15:28.403Z,17.38
2017-09-11T01:16:08.927Z,17.28
2017-09-11T01:16:49.500Z,17.23
2017-09-11T01:17:30.035Z,17.23
2017-09-11T01:18:10.581Z,17.21
2017-09-11T01:18:51.098Z,17.26
2017-09-11T01:19:31.632Z,17.25
2017-09-11T01:20:12.174Z,17.25
2017-09-11T01:20:52.701Z,17.19
2017-09-11T01:21:33.228Z,17.26
2017-09-11T01:22:13.790Z,17.22
2017-09-11T01:22:54.313Z,17.16
2017-09-11T01:23:34.838Z,17.12
2017-09-11T01:24:15.367Z,17.08
2017-09-11T01:24:55.896Z,17.12
2017-09-11T01:25:37.002Z,17.12
2017-09-11T01:26:17.560Z,17.08
2017-09-11T01:26:58.080Z,17.19
2017-09-11T01:27:38.571Z,17.08
2017-09-11T01:28:19.100Z,17.19
2017-09-11T01:28:59.618Z,17.16
2017-09-11T01:29:40.142Z,17.16
2017-09-11T01:30:20.705Z,17.14
2017-09-11T01:31:01.237Z,17.14
2017-09-11T01:31:41.801Z,17.01
2017-09-11T01:32:22.363Z,17.14
2017-09-11T01:33:02.870Z,17
2017-09-11T01:33:43.425Z,17.04
2017-09-11T01:34:23.941Z,17.12
2017-09-11T01:35:04.479Z,17.08
2017-09-11T01:35:45.000Z,17.12
2017-09-11T01:36:25.564Z,17.15
2017-09-11T01:37:06.086Z,17.18
2017-09-11T01:37:46.623Z,17.14
2017-09-11T01:38:27.160Z,17.11
2017-09-11T01:39:07.706Z,17.12
2017-09-11T01:39:48.219Z,17.07
2017-09-11T01:40:28.769Z,17.04
2017-09-11T01:41:09.321Z,17.04
2017-09-11T01:41:49.809Z,17.01
2017-09-11T01:42:30.362Z,16.97
2017-09-11T01:43:10.864Z,17.07
2017-09-11T01:43:51.421Z,16.97
2017-09-11T01:44:31.972Z,16.97
2017-09-11T01:45:12.478Z,17.11
2017-09-11T01:45:53.024Z,17.04
2017-09-11T01:46:33.557Z,16.91
2017-09-11T01:47:14.069Z,16.89
2017-09-11T01:47:54.626Z,16.94
2017-09-11T01:48:35.200Z,16.88
2017-09-11T01:49:15.727Z,16.86
2017-09-11T01:49:56.238Z,16.79
2017-09-11T01:50:36.757Z,16.76
2017-09-11T01:51:17.303Z,16.81
2017-09-11T01:51:57.829Z,16.85
2017-09-11T01:52:38.380Z,16.91
2017-09-11T01:53:18.886Z,16.82
2017-09-11T01:53:59.453Z,16.89
2017-09-11T01:54:39.951Z,16.82
2017-09-11T01:55:20.562Z,16.82
2017-09-11T01:56:01.082Z,16.86
2017-09-11T01:56:41.689Z,16.85
2017-09-11T01:57:22.213Z,16.79
2017-09-11T01:58:02.776Z,16.79
2017-09-11T01:58:43.297Z,16.86
2017-09-11T01:59:23.830Z,16.81
2017-09-11T02:00:04.392Z,16.94
2017-09-11T02:00:44.905Z,16.98
2017-09-11T02:01:25.474Z,16.89
2017-09-11T02:02:05.958Z,16.94
2017-09-11T02:02:46.520Z,16.91
2017-09-11T02:03:27.041Z,16.97
2017-09-11T02:04:07.624Z,16.98
2017-09-11T02:04:48.154Z,16.98
2017-09-11T02:05:28.750Z,16.98
2017-09-11T02:06:09.297Z,16.98
2017-09-11T02:06:49.821Z,16.98
2017-09-11T02:07:30.354Z,16.97
2017-09-11T02:08:10.886Z,17.06
2017-09-11T02:08:51.420Z,16.98
2017-09-11T02:09:31.982Z,17.06
2017-09-11T02:10:12.514Z,17.01
2017-09-11T02:10:53.075Z,17.12
2017-09-11T02:11:33.591Z,16.98
2017-09-11T02:12:14.148Z,17.04
2017-09-11T02:12:54.662Z,17.06
2017-09-11T02:13:35.247Z,17.04
2017-09-11T02:14:15.755Z,17.04
2017-09-11T02:14:56.307Z,17.03
2017-09-11T02:15:36.869Z,17.04
2017-09-11T02:16:17.396Z,16.97
2017-09-11T02:16:57.920Z,17.06
2017-09-11T02:17:38.455Z,16.96
2017-09-11T02:18:18.963Z,17.07
2017-09-11T02:18:59.519Z,17.08
2017-09-11T02:19:40.149Z,17.14
2017-09-11T02:20:20.665Z,17.08
2017-09-11T02:21:01.207Z,17.08
2017-09-11T02:21:41.756Z,17.14
2017-09-11T02:22:22.272Z,17.07
2017-09-11T02:23:02.849Z,16.97
2017-09-11T02:23:43.376Z,16.97
2017-09-11T02:24:23.922Z,17.11
2017-09-11T02:25:04.487Z,17.08
2017-09-11T02:25:44.997Z,17.14
2017-09-11T02:26:25.538Z,17.06
2017-09-11T02:27:06.080Z,17.14
2017-09-11T02:27:46.602Z,17.11
2017-09-11T02:28:27.138Z,17.14
2017-09-11T02:29:07.706Z,17
2017-09-11T02:29:48.258Z,17.01
2017-09-11T02:30:28.779Z,17.11
2017-09-11T02:31:09.358Z,17.06
2017-09-11T02:31:49.891Z,17
2017-09-11T02:32:30.446Z,16.97
2017-09-11T02:33:10.955Z,17.03
2017-09-11T02:33:51.491Z,17
2017-09-11T02:34:32.016Z,16.96
2017-09-11T02:35:12.524Z,16.97
2017-09-11T02:35:53.060Z,16.97
2017-09-11T02:36:34.120Z,16.98
2017-09-11T02:37:14.755Z,17
2017-09-11T02:37:55.210Z,16.91
2017-09-11T02:38:35.757Z,16.89
2017-09-11T02:39:16.242Z,16.91
2017-09-11T02:39:56.752Z,16.97
2017-09-11T02:40:37.314Z,17
2017-09-11T02:41:17.833Z,17
2017-09-11T02:41:58.417Z,17.01
2017-09-11T02:42:38.905Z,16.97
2017-09-11T02:43:19.461Z,16.94
2017-09-11T02:43:59.983Z,16.88
2017-09-11T02:44:40.492Z,16.96
2017-09-11T02:45:21.029Z,16.97
2017-09-11T02:46:01.555Z,17
2017-09-11T02:46:42.101Z,16.96
2017-09-11T02:47:22.609Z,16.96
2017-09-11T02:48:03.168Z,16.96
2017-09-11T02:48:43.682Z,16.91
2017-09-11T02:49:24.208Z,16.91
2017-09-11T02:50:04.749Z,16.89
2017-09-11T02:50:45.298Z,16.94
2017-09-11T02:51:25.840Z,16.88
2017-09-11T02:52:06.371Z,16.85
2017-09-11T02:52:46.909Z,16.79
2017-09-11T02:53:27.398Z,16.76
2017-09-11T02:54:07.945Z,16.83
2017-09-11T02:54:48.498Z,16.91
2017-09-11T02:55:29.024Z,16.91
2017-09-11T02:56:09.574Z,16.94
2017-09-11T02:56:50.057Z,16.88
2017-09-11T02:57:30.598Z,16.81
2017-09-11T02:58:11.145Z,16.86
2017-09-11T02:58:51.703Z,16.85
2017-09-11T02:59:32.254Z,16.81
2017-09-11T03:00:12.769Z,16.81
2017-09-11T03:00:53.297Z,16.86
2017-09-11T03:01:33.871Z,16.88
2017-09-11T03:02:14.418Z,16.76
2017-09-11T03:02:54.997Z,16.82
2017-09-11T03:03:35.545Z,16.81
2017-09-11T03:04:16.069Z,16.85
2017-09-11T03:04:56.552Z,16.91
2017-09-11T03:05:37.072Z,16.88
2017-09-11T03:06:17.583Z,16.82
2017-09-11T03:06:58.136Z,16.81
2017-09-11T03:07:38.644Z,16.78
2017-09-11T03:08:19.212Z,16.82
2017-09-11T03:08:59.729Z,16.76
2017-09-11T03:09:40.209Z,16.81
2017-09-11T03:10:20.755Z,16.83
2017-09-11T03:11:01.310Z,16.75
2017-09-11T03:11:41.823Z,16.79
2017-09-11T03:12:22.370Z,16.79
2017-09-11T03:13:02.864Z,16.88
2017-09-11T03:13:43.457Z,16.82
2017-09-11T03:14:23.963Z,16.78
2017-09-11T03:15:04.497Z,16.66
2017-09-11T03:15:45.040Z,16.76
2017-09-11T03:16:25.571Z,16.66
2017-09-11T03:17:06.078Z,16.58
2017-09-11T03:17:46.612Z,16.66
2017-09-11T03:18:27.132Z,16.57
2017-09-11T03:19:07.666Z,16.71
2017-09-11T03:19:48.175Z,16.71
2017-09-11T03:20:28.735Z,16.78
2017-09-11T03:21:09.268Z,16.79
2017-09-11T03:21:49.798Z,16.7
2017-09-11T03:22:30.336Z,16.71
2017-09-11T03:23:10.874Z,16.7
2017-09-11T03:23:51.424Z,16.75
2017-09-11T03:24:31.977Z,16.67
2017-09-11T03:25:12.464Z,16.71
2017-09-11T03:25:53.019Z,16.71
2017-09-11T03:26:33.604Z,16.71
2017-09-11T03:27:14.119Z,16.78
2017-09-11T03:27:54.667Z,16.86
2017-09-11T03:28:35.232Z,16.75
2017-09-11T03:29:15.734Z,16.73
2017-09-11T03:29:56.317Z,16.82
2017-09-11T03:30:36.852Z,16.75
2017-09-11T03:31:17.355Z,16.76
2017-09-11T03:31:57.888Z,16.78
2017-09-11T03:32:38.413Z,16.79
2017-09-11T03:33:18.950Z,16.86
2017-09-11T03:33:59.485Z,16.79
2017-09-11T03:34:40.056Z,16.86
2017-09-11T03:35:20.602Z,16.85
2017-09-11T03:36:01.104Z,16.89
2017-09-11T03:36:41.620Z,16.91
2017-09-11T03:37:22.198Z,16.94
2017-09-11T03:38:02.804Z,16.91
2017-09-11T03:38:43.319Z,16.91
2017-09-11T03:39:23.839Z,16.88
2017-09-11T03:40:04.350Z,16.86
2017-09-11T03:40:44.903Z,16.86
2017-09-11T03:41:25.422Z,16.89
2017-09-11T03:42:05.963Z,16.88
2017-09-11T03:42:46.504Z,16.94
2017-09-11T03:43:27.110Z,16.85
2017-09-11T03:44:07.664Z,16.88
2017-09-11T03:44:48.155Z,16.94
2017-09-11T03:45:28.666Z,16.96
2017-09-11T03:46:09.215Z,17.03
2017-09-11T03:46:49.770Z,16.98
2017-09-11T03:47:30.309Z,16.98
2017-09-11T03:48:10.846Z,17.04
2017-09-11T03:48:51.369Z,16.98
2017-09-11T03:49:31.908Z,16.96
2017-09-11T03:50:12.476Z,17.07
2017-09-11T03:50:53.016Z,17.07
2017-09-11T03:51:33.526Z,17.08
2017-09-11T03:52:14.055Z,17.03
2017-09-11T03:52:54.576Z,16.98
2017-09-11T03:53:35.119Z,17
2017-09-11T03:54:15.682Z,17.08
2017-09-11T03:54:56.213Z,17.14
2017-09-11T03:55:36.755Z,17.14
2017-09-11T03:56:17.348Z,17.08
2017-09-11T03:56:57.832Z,17.11
2017-09-11T03:57:38.388Z,17.15
2017-09-11T03:58:18.909Z,17.22
2017-09-11T03:58:59.472Z,17.16
2017-09-11T03:59:39.993Z,17.18
2017-09-11T04:00:20.528Z,17.12
2017-09-11T04:01:01.074Z,17.14
2017-09-11T04:01:41.631Z,17.23
2017-09-11T04:02:22.160Z,17.22
2017-09-11T04:03:02.697Z,17.22
2017-09-11T04:03:43.257Z,17.28
2017-09-11T04:04:23.793Z,17.22
2017-09-11T04:05:04.335Z,17.21
2017-09-11T04:05:44.850Z,17.28
2017-09-11T04:06:25.407Z,17.22
2017-09-11T04:07:05.903Z,17.16
2017-09-11T04:07:46.462Z,17.03
2017-09-11T04:08:27.001Z,17.12
2017-09-11T04:09:07.539Z,17.06
2017-09-11T04:09:48.092Z,17.06
2017-09-11T04:10:28.710Z,17.11
2017-09-11T04:11:09.191Z,17.16
2017-09-11T04:11:49.849Z,17.12
2017-09-11T04:12:30.375Z,17.06
2017-09-11T04:13:10.916Z,17.21
2017-09-11T04:13:51.413Z,17.16
2017-09-11T04:14:31.984Z,17.19
2017-09-11T04:15:12.482Z,17.19
2017-09-11T04:15:53.027Z,17.21
2017-09-11T04:16:33.554Z,17.12
2017-09-11T04:17:14.063Z,17.06
2017-09-11T04:17:54.602Z,17.21
2017-09-11T04:18:35.126Z,17.14
2017-09-11T04:19:15.678Z,17.11
2017-09-11T04:19:56.164Z,17.18
2017-09-11T04:20:36.732Z,17.22
2017-09-11T04:21:17.275Z,17.19
2017-09-11T04:21:57.796Z,17.22
2017-09-11T04:22:38.329Z,17.23
2017-09-11T04:23:18.916Z,17.23
2017-09-11T04:23:59.479Z,17.18
2017-09-11T04:24:40.004Z,17.21
2017-09-11T04:25:20.532Z,17.25
2017-09-11T04:26:01.081Z,17.33
2017-09-11T04:26:41.587Z,17.3
2017-09-11T04:27:22.114Z,17.33
2017-09-11T04:28:02.654Z,17.31
2017-09-11T04:28:43.198Z,17.22
2017-09-11T04:29:23.754Z,17.23
2017-09-11T04:30:04.301Z,17.31
2017-09-11T04:30:44.878Z,17.37
2017-09-11T04:31:25.395Z,17.37
2017-09-11T04:32:05.904Z,17.34
2017-09-11T04:32:46.483Z,17.33
2017-09-11T04:33:26.963Z,17.44
2017-09-11T04:34:07.505Z,17.37
2017-09-11T04:34:48.034Z,17.38
2017-09-11T04:35:28.589Z,17.36
2017-09-11T04:36:09.160Z,17.36
2017-09-11T04:36:49.625Z,17.36
2017-09-11T04:37:30.191Z,17.31
2017-09-11T04:38:10.708Z,17.41
2017-09-11T04:38:51.232Z,17.36
2017-09-11T04:39:31.793Z,17.44
2017-09-11T04:40:12.307Z,17.44
2017-09-11T04:40:52.840Z,17.36
2017-09-11T04:41:33.417Z,17.41
2017-09-11T04:42:13.861Z,17.41
2017-09-11T04:42:54.414Z,17.46
2017-09-11T04:43:34.938Z,17.46
2017-09-11T04:44:15.503Z,17.44
2017-09-11T04:44:56.101Z,17.38
2017-09-11T04:45:36.613Z,17.44
2017-09-11T04:46:17.183Z,17.41
2017-09-11T04:46:57.723Z,17.52
2017-09-11T04:47:38.248Z,17.37
2017-09-11T04:48:18.784Z,17.44
2017-09-11T04:48:59.348Z,17.46
2017-09-11T04:49:39.871Z,17.4
2017-09-11T04:50:20.414Z,17.41
2017-09-11T04:51:00.906Z,17.44
2017-09-11T04:51:41.480Z,17.41
2017-09-11T04:52:22.000Z,17.41
2017-09-11T04:53:02.540Z,17.34
2017-09-11T04:53:43.100Z,17.44
2017-09-11T04:54:23.659Z,17.46
2017-09-11T04:55:04.201Z,17.41
2017-09-11T04:55:44.714Z,17.4
2017-09-11T04:56:25.290Z,17.4
2017-09-11T04:57:05.845Z,17.44
2017-09-11T04:57:46.384Z,17.41
2017-09-11T04:58:26.882Z,17.43
2017-09-11T04:59:07.418Z,17.48
2017-09-11T04:59:47.954Z,17.48
2017-09-11T05:00:28.522Z,17.51
2017-09-11T05:01:09.074Z,17.51
2017-09-11T05:01:49.606Z,17.51
2017-09-11T05:02:30.147Z,17.58
2017-09-11T05:03:10.673Z,17.49
2017-09-11T05:03:51.206Z,17.51
2017-09-11T05:04:31.718Z,17.59
2017-09-11T05:05:12.258Z,17.48
2017-09-11T05:05:52.817Z,17.56
2017-09-11T05:06:33.382Z,17.51
2017-09-11T05:07:13.882Z,17.43
2017-09-11T05:07:54.400Z,17.46
2017-09-11T05:08:34.950Z,17.51
2017-09-11T05:09:15.528Z,17.44
2017-09-11T05:09:56.028Z,17.46
2017-09-11T05:10:36.597Z,17.41
2017-09-11T05:11:17.066Z,17.52
2017-09-11T05:11:57.588Z,17.44
2017-09-11T05:12:38.174Z,17.51
2017-09-11T05:13:18.652Z,17.55
2017-09-11T05:13:59.241Z,17.56
2017-09-11T05:14:40.027Z,17.56
2017-09-11T05:15:20.558Z,17.55
2017-09-11T05:16:01.057Z,17.63
2017-09-11T05:16:41.584Z,17.58
2017-09-11T05:17:22.138Z,17.66
2017-09-11T05:18:02.623Z,17.64
2017-09-11T05:18:43.178Z,17.7
2017-09-11T05:19:23.707Z,17.72
2017-09-11T05:20:04.269Z,17.72
2017-09-11T05:20:44.771Z,17.78
2017-09-11T05:21:25.305Z,17.81
2017-09-11T05:22:05.871Z,17.77
2017-09-11T05:22:46.435Z,17.87
2017-09-11T05:23:26.957Z,17.77
2017-09-11T05:24:08.000Z,17.9
2017-09-11T05:24:48.509Z,17.82
2017-09-11T05:25:29.143Z,18
2017-09-11T05:26:09.634Z,17.99
2017-09-11T05:26:50.148Z,17.97
2017-09-11T05:27:30.680Z,17.93
2017-09-11T05:28:11.212Z,17.93
2017-09-11T05:28:51.720Z,17.99
2017-09-11T05:29:32.289Z,17.97
2017-09-11T05:30:12.777Z,17.93
2017-09-11T05:30:53.382Z,18.12
2017-09-11T05:31:33.881Z,18.05
2017-09-11T05:32:14.373Z,18.11
2017-09-11T05:32:54.894Z,18.18
2017-09-11T05:33:35.444Z,18.11
2017-09-11T05:34:15.985Z,18.2
2017-09-11T05:34:56.534Z,18.27
2017-09-11T05:35:37.048Z,18.33
2017-09-11T05:36:17.599Z,18.33
2017-09-11T05:36:58.165Z,18.32
2017-09-11T05:37:38.726Z,18.33
2017-09-11T05:38:19.262Z,18.32
2017-09-11T05:38:59.948Z,18.27
2017-09-11T05:39:40.798Z,18.37
2017-09-11T05:40:21.407Z,18.36
2017-09-11T05:41:02.157Z,18.32
2017-09-11T05:41:42.877Z,18.3
2017-09-11T05:42:23.589Z,18.44
2017-09-11T05:43:04.200Z,18.29
2017-09-11T05:43:44.821Z,18.33
2017-09-11T05:44:25.411Z,18.41
2017-09-11T05:45:06.272Z,18.45
2017-09-11T05:45:46.958Z,18.41
2017-09-11T05:46:27.591Z,18.42
2017-09-11T05:47:08.074Z,18.5
2017-09-11T05:47:48.624Z,18.41
2017-09-11T05:48:29.143Z,18.41
2017-09-11T05:49:09.688Z,18.39
2017-09-11T05:49:50.233Z,18.36
2017-09-11T05:50:30.731Z,18.47
2017-09-11T05:51:11.294Z,18.42
2017-09-11T05:51:51.861Z,18.39
2017-09-11T05:52:32.380Z,18.36
2017-09-11T05:53:12.913Z,18.37
2017-09-11T05:53:53.437Z,18.42
2017-09-11T05:54:33.968Z,18.44
2017-09-11T05:55:14.478Z,18.52
2017-09-11T05:55:55.026Z,18.41
2017-09-11T05:56:35.589Z,18.47
2017-09-11T05:57:16.119Z,18.51
2017-09-11T05:57:56.673Z,18.51
2017-09-11T05:58:37.234Z,18.62
2017-09-11T05:59:17.772Z,18.6
2017-09-11T05:59:58.292Z,18.58
2017-09-11T06:00:38.813Z,18.57
2017-09-11T06:01:19.359Z,18.58
2017-09-11T06:01:59.905Z,18.58
2017-09-11T06:02:40.420Z,18.58
2017-09-11T06:03:20.975Z,18.58
2017-09-11T06:04:01.511Z,18.66
2017-09-11T06:04:42.068Z,18.58
2017-09-11T06:05:22.569Z,18.63
2017-09-11T06:06:03.126Z,18.51
2017-09-11T06:06:43.639Z,18.6
2017-09-11T06:07:24.198Z,18.58
2017-09-11T06:08:04.719Z,18.63
2017-09-11T06:08:45.240Z,18.67
2017-09-11T06:09:25.777Z,18.69
2017-09-11T06:10:06.337Z,18.78
2017-09-11T06:10:46.915Z,18.72
2017-09-11T06:11:27.478Z,18.8
2017-09-11T06:12:07.966Z,18.87
2017-09-11T06:12:48.503Z,18.75
2017-09-11T06:13:29.166Z,18.8
2017-09-11T06:14:09.634Z,18.81
2017-09-11T06:14:50.191Z,18.85
2017-09-11T06:15:30.731Z,19.02
2017-09-11T06:16:11.272Z,19.04
2017-09-11T06:16:51.906Z,18.9
2017-09-11T06:17:32.433Z,18.9
2017-09-11T06:18:12.966Z,18.95
2017-09-11T06:18:53.473Z,19.08
2017-09-11T06:19:34.050Z,19.18
2017-09-11T06:20:14.598Z,19.14
2017-09-11T06:20:55.158Z,18.85
2017-09-11T06:21:35.652Z,18.92
2017-09-11T06:22:16.155Z,19.02
2017-09-11T06:22:56.703Z,19.06
2017-09-11T06:23:37.261Z,19.16
2017-09-11T06:24:17.783Z,19.28
2017-09-11T06:24:58.347Z,19.41
2017-09-11T06:25:38.862Z,19.56
2017-09-11T06:26:19.410Z,19.56
2017-09-11T06:26:59.966Z,19.66
2017-09-11T06:27:40.531Z,19.78
2017-09-11T06:28:21.065Z,19.77
2017-09-11T06:29:01.605Z,19.68
2017-09-11T06:29:42.137Z,19.84
2017-09-11T06:30:22.634Z,19.87
2017-09-11T06:31:03.218Z,19.95
2017-09-11T06:31:46.632Z,20.05
2017-09-11T06:32:27.299Z,20.08
2017-09-11T06:33:07.886Z,20.23
2017-09-11T06:33:48.370Z,20.26
2017-09-11T06:34:28.983Z,20.38
2017-09-11T06:35:09.536Z,20.48
2017-09-11T06:35:50.053Z,20.36
2017-09-11T06:36:30.595Z,20.36
2017-09-11T06:37:11.125Z,20.33
2017-09-11T06:37:51.899Z,20.47
2017-09-11T06:38:32.371Z,20.42
2017-09-11T06:39:12.902Z,20.51
2017-09-11T06:39:53.467Z,20.43
2017-09-11T06:40:33.946Z,20.35
2017-09-11T06:41:14.491Z,20.38
2017-09-11T06:41:55.028Z,20.35
2017-09-11T06:42:35.578Z,20.28
2017-09-11T06:43:16.130Z,20.13
2017-09-11T06:43:56.658Z,20.14
2017-09-11T06:44:37.192Z,19.95
2017-09-11T06:45:18.661Z,19.92
2017-09-11T06:45:59.507Z,19.86
2017-09-11T06:46:41.432Z,19.86
2017-09-11T06:47:22.107Z,19.69
2017-09-11T06:48:02.650Z,19.77
2017-09-11T06:48:43.206Z,19.77
2017-09-11T06:49:23.759Z,19.77
2017-09-11T06:50:04.276Z,19.61
2017-09-11T06:50:44.790Z,19.63
2017-09-11T06:51:25.299Z,19.68
2017-09-11T06:52:05.890Z,19.54
2017-09-11T06:52:46.449Z,19.48
2017-09-11T06:53:27.571Z,19.37
2017-09-11T06:54:08.171Z,19.31
2017-09-11T06:54:48.766Z,19.26
2017-09-11T06:55:29.280Z,19.22
2017-09-11T06:56:09.840Z,19.22
2017-09-11T06:56:50.361Z,19.32
2017-09-11T06:57:30.914Z,19.29
2017-09-11T06:58:11.497Z,19.25
2017-09-11T06:58:52.021Z,19.25
2017-09-11T06:59:32.557Z,19.25
2017-09-11T07:00:13.175Z,19.22
2017-09-11T07:00:53.715Z,19.31
2017-09-11T07:01:34.305Z,19.31
2017-09-11T07:02:14.830Z,19.25
2017-09-11T07:02:55.425Z,19.21
2017-09-11T07:03:35.917Z,19.19
2017-09-11T07:04:16.425Z,19.29
2017-09-11T07:04:57.001Z,19.33
2017-09-11T07:05:37.563Z,19.36
2017-09-11T07:06:18.242Z,19.33
2017-09-11T07:06:58.791Z,19.47
2017-09-11T07:07:39.345Z,19.37
2017-09-11T07:08:19.816Z,19.46
2017-09-11T07:09:00.398Z,19.59
2017-09-11T07:09:40.930Z,19.37
2017-09-11T07:10:21.488Z,19.32
2017-09-11T07:11:02.031Z,19.41
2017-09-11T07:11:42.787Z,19.65
2017-09-11T07:12:23.425Z,19.59
2017-09-11T07:13:04.026Z,19.69
2017-09-11T07:13:44.507Z,19.66
2017-09-11T07:14:25.049Z,19.54
2017-09-11T07:15:05.537Z,19.39
2017-09-11T07:15:46.090Z,19.32
2017-09-11T07:16:26.640Z,19.44
2017-09-11T07:17:07.172Z,19.65
2017-09-11T07:17:47.757Z,19.8
2017-09-11T07:18:28.332Z,19.73
2017-09-11T07:19:08.854Z,19.63
2017-09-11T07:19:50.247Z,19.71
2017-09-11T07:20:30.755Z,19.61
2017-09-11T07:21:11.303Z,19.74
2017-09-11T07:21:52.652Z,19.68
2017-09-11T07:22:33.215Z,19.73
2017-09-11T07:23:13.774Z,19.71
2017-09-11T07:23:54.367Z,19.81
2017-09-11T07:24:34.953Z,19.94
2017-09-11T07:25:15.495Z,19.81
2017-09-11T07:25:56.123Z,19.95
2017-09-11T07:26:36.641Z,19.92
2017-09-11T07:27:17.164Z,19.81
2017-09-11T07:27:57.729Z,19.91
2017-09-11T07:28:38.323Z,19.91
2017-09-11T07:29:18.869Z,19.94
2017-09-11T07:29:59.459Z,19.96
2017-09-11T07:30:39.924Z,20.05
2017-09-11T07:31:20.566Z,19.96
2017-09-11T07:32:01.160Z,20.06
2017-09-11T07:32:41.717Z,19.96
2017-09-11T07:33:22.196Z,20.01
2017-09-11T07:34:02.745Z,19.92
2017-09-11T07:34:43.310Z,19.76
2017-09-11T07:35:23.869Z,19.66
2017-09-11T07:36:04.721Z,19.58
2017-09-11T07:36:45.258Z,19.61
2017-09-11T07:37:25.809Z,19.41
2017-09-11T07:38:06.316Z,19.18
2017-09-11T07:38:46.936Z,19.13
2017-09-11T07:39:27.469Z,18.91
2017-09-11T07:40:08.032Z,19.04
2017-09-11T07:40:48.553Z,19.02
2017-09-11T07:41:29.130Z,18.9
2017-09-11T07:42:09.651Z,18.95
2017-09-11T07:42:51.288Z,19.02
2017-09-11T07:43:30.901Z,19.02
2017-09-11T07:44:11.452Z,19.08
2017-09-11T07:44:51.989Z,19.13
2017-09-11T07:45:32.552Z,19.13
2017-09-11T07:46:13.077Z,19.16
2017-09-11T07:46:53.656Z,19.08
2017-09-11T07:47:34.145Z,19.19
2017-09-11T07:48:14.658Z,19.16
2017-09-11T07:48:55.226Z,19.28
2017-09-11T07:49:35.909Z,19.26
2017-09-11T07:50:17.739Z,19.18
2017-09-11T07:50:58.228Z,19.11
2017-09-11T07:51:38.792Z,19.26
2017-09-11T07:52:19.390Z,19.33
2017-09-11T07:52:59.933Z,19.36
2017-09-11T07:53:40.490Z,19.58
2017-09-11T07:54:21.027Z,19.63
2017-09-11T07:55:01.566Z,19.56
2017-09-11T07:55:42.094Z,19.63
2017-09-11T07:56:22.668Z,19.84
2017-09-11T07:57:03.250Z,19.91
2017-09-11T07:57:43.778Z,19.95
2017-09-11T07:58:24.331Z,19.78
2017-09-11T07:59:04.849Z,19.65
2017-09-11T07:59:45.380Z,19.63
2017-09-11T08:00:25.972Z,19.77
2017-09-11T08:01:06.453Z,19.98
2017-09-11T08:01:46.991Z,19.65
2017-09-11T08:02:27.508Z,19.55
2017-09-11T08:03:08.034Z,19.73
2017-09-11T08:03:48.579Z,19.73
2017-09-11T08:04:29.099Z,19.48
2017-09-11T08:05:09.668Z,19.54
2017-09-11T08:05:50.215Z,19.74
2017-09-11T08:06:31.104Z,19.55
2017-09-11T08:07:11.670Z,19.61
2017-09-11T08:07:52.201Z,19.65
2017-09-11T08:08:32.724Z,19.87
2017-09-11T08:09:13.287Z,19.88
2017-09-11T08:09:53.844Z,19.92
2017-09-11T08:10:34.401Z,19.74
2017-09-11T08:11:15.001Z,19.86
2017-09-11T08:11:55.538Z,19.76
2017-09-11T08:12:36.069Z,19.86
2017-09-11T08:13:16.647Z,19.95
2017-09-11T08:13:57.155Z,19.73
2017-09-11T08:14:37.718Z,19.76
2017-09-11T08:15:18.281Z,19.88
2017-09-11T08:15:58.842Z,19.98
2017-09-11T08:16:39.392Z,20.01
2017-09-11T08:17:19.974Z,20.14
2017-09-11T08:18:00.501Z,20.17
2017-09-11T08:18:41.044Z,20.17
2017-09-11T08:19:21.611Z,20.1
2017-09-11T08:20:02.179Z,19.94
2017-09-11T08:20:42.678Z,20.08
2017-09-11T08:21:23.239Z,20.17
2017-09-11T08:22:03.745Z,20.26
2017-09-11T08:22:44.342Z,19.98
2017-09-11T08:23:24.849Z,20.17
2017-09-11T08:24:05.400Z,20.17
2017-09-11T08:24:45.937Z,19.87
2017-09-11T08:25:26.499Z,19.84
2017-09-11T08:26:07.108Z,20.05
2017-09-11T08:26:47.690Z,20.08
2017-09-11T08:27:28.351Z,20.16
2017-09-11T08:28:08.970Z,20.28
2017-09-11T08:28:49.465Z,20.28
2017-09-11T08:29:30.091Z,20.36
2017-09-11T08:30:10.637Z,20.26
2017-09-11T08:30:51.159Z,20.29
2017-09-11T08:31:31.973Z,20.41
2017-09-11T08:32:12.390Z,20.38
2017-09-11T08:32:52.930Z,20.42
2017-09-11T08:33:33.486Z,20.39
2017-09-11T08:34:14.021Z,20.29
2017-09-11T08:34:54.543Z,20.32
2017-09-11T08:35:35.116Z,20.29
2017-09-11T08:36:15.627Z,20.18
2017-09-11T08:36:56.242Z,20.16
2017-09-11T08:37:36.780Z,20.11
2017-09-11T08:38:17.323Z,20.16
2017-09-11T08:38:57.945Z,20.11
2017-09-11T08:39:38.458Z,19.95
2017-09-11T08:40:18.963Z,19.95
2017-09-11T08:40:59.551Z,20.03
2017-09-11T08:41:40.108Z,19.99
2017-09-11T08:42:20.597Z,19.94
2017-09-11T08:43:01.144Z,19.92
2017-09-11T08:43:41.640Z,19.91